createdAt,value
2018-11-01T00:00:36.281Z,64.20
2018-11-01T00:03:08.239Z,64.20
2018-11-01T00:05:37.446Z,64.30
2018-11-01T00:08:08.362Z,64.20
2018-11-01T00:10:38.429Z,64.20
2018-11-01T00:13:27.255Z,64.20
2018-11-01T00:15:57.266Z,64.10
2018-11-01T00:18:28.618Z,64.00
2018-11-01T00:20:58.337Z,64.00
2018-11-01T00:23:29.687Z,64.00
2018-11-01T00:26:00.338Z,64.10
2018-11-01T00:28:30.427Z,64.00
2018-11-01T00:30:59.525Z,64.00
2018-11-01T00:33:30.103Z,64.00
2018-11-01T00:36:00.173Z,64.20
2018-11-01T00:38:29.313Z,64.20
2018-11-01T00:40:59.296Z,64.10
2018-11-01T00:43:29.773Z,64.20
2018-11-01T00:46:13.578Z,64.20
2018-11-01T00:48:42.674Z,64.30
2018-11-01T00:51:14.201Z,64.30
2018-11-01T00:53:43.859Z,64.50
2018-11-01T00:56:13.306Z,64.50
2018-11-01T00:58:43.123Z,64.50
2018-11-01T01:01:12.990Z,64.60
2018-11-01T01:03:43.577Z,64.80
2018-11-01T01:06:14.370Z,64.90
2018-11-01T01:08:43.452Z,65.00
2018-11-01T01:11:14.513Z,65.00
2018-11-01T01:13:45.313Z,65.00
2018-11-01T01:16:14.942Z,65.00
2018-11-01T01:18:46.205Z,65.00
2018-11-01T01:21:15.878Z,65.00
2018-11-01T01:23:46.638Z,65.00
2018-11-01T01:26:17.899Z,65.00
2018-11-01T01:28:49.177Z,65.00
2018-11-01T01:31:20.022Z,64.80
2018-11-01T01:33:52.197Z,64.90
2018-11-01T01:36:22.651Z,64.80
2018-11-01T01:38:53.012Z,64.80
2018-11-01T01:41:27.470Z,64.80
2018-11-01T01:43:58.676Z,64.90
2018-11-01T01:46:28.913Z,64.80
2018-11-01T01:48:58.664Z,64.90
2018-11-01T01:51:30.707Z,64.90
2018-11-01T01:54:00.824Z,65.00
2018-11-01T01:56:31.271Z,65.20
2018-11-01T01:59:04.777Z,65.30
2018-11-01T02:01:35.286Z,65.30
2018-11-01T02:04:08.057Z,65.40
2018-11-01T02:06:38.092Z,65.40
2018-11-01T02:09:12.521Z,65.50
2018-11-01T02:11:43.852Z,65.60
2018-11-01T02:14:13.663Z,65.70
2018-11-01T02:16:43.387Z,65.80
2018-11-01T02:19:14.048Z,65.90
2018-11-01T02:21:43.957Z,66.10
2018-11-01T02:24:14.671Z,66.10
2018-11-01T02:26:45.123Z,66.10
2018-11-01T02:29:15.242Z,66.70
2018-11-01T02:31:44.550Z,66.30
2018-11-01T02:34:17.806Z,66.40
2018-11-01T02:36:47.837Z,66.90
2018-11-01T02:39:17.434Z,66.50
2018-11-01T02:41:47.450Z,66.60
2018-11-01T02:44:17.578Z,66.70
2018-11-01T02:46:47.282Z,66.90
2018-11-01T02:49:18.700Z,67.00
2018-11-01T02:51:48.893Z,67.10
2018-11-01T02:54:19.887Z,67.30
2018-11-01T02:56:49.292Z,67.40
2018-11-01T02:59:20.452Z,67.40
2018-11-01T03:01:51.606Z,67.40
2018-11-01T03:04:21.722Z,67.60
2018-11-01T03:06:51.913Z,67.50
2018-11-01T03:09:21.850Z,67.50
2018-11-01T03:11:51.978Z,67.40
2018-11-01T03:14:21.813Z,67.40
2018-11-01T03:16:51.913Z,67.40
2018-11-01T03:19:21.845Z,67.20
2018-11-01T03:22:01.435Z,67.20
2018-11-01T03:24:32.676Z,67.30
2018-11-01T03:27:17.418Z,67.40
2018-11-01T03:29:48.218Z,67.40
2018-11-01T03:32:17.630Z,67.40
2018-11-01T03:34:46.857Z,67.50
2018-11-01T03:37:15.993Z,67.60
2018-11-01T03:39:46.023Z,67.80
2018-11-01T03:42:20.482Z,67.90
2018-11-01T03:44:50.750Z,68.10
2018-11-01T03:47:19.890Z,68.20
2018-11-01T03:49:51.010Z,68.40
2018-11-01T03:52:22.400Z,68.60
2018-11-01T03:54:51.566Z,68.80
2018-11-01T03:57:22.410Z,69.00
2018-11-01T03:59:51.706Z,69.20
2018-11-01T04:02:21.624Z,69.20
2018-11-01T04:04:50.902Z,69.40
2018-11-01T04:07:22.168Z,69.50
2018-11-01T04:09:52.506Z,69.70
2018-11-01T04:12:36.430Z,69.80
2018-11-01T04:15:07.738Z,69.80
2018-11-01T04:17:38.140Z,69.80
2018-11-01T04:20:09.034Z,70.00
2018-11-01T04:22:44.502Z,69.80
2018-11-01T04:25:14.675Z,69.70
2018-11-01T04:27:44.676Z,69.60
2018-11-01T04:30:14.179Z,69.50
2018-11-01T04:32:44.058Z,69.40
2018-11-01T04:35:16.017Z,69.40
2018-11-01T04:37:45.682Z,69.30
2018-11-01T04:42:59.620Z,69.00
2018-11-01T04:45:30.312Z,68.90
2018-11-01T04:48:02.421Z,69.20
2018-11-01T04:50:37.647Z,68.50
2018-11-01T05:10:03.480Z,66.90
2018-11-01T05:29:23.203Z,65.30
2018-11-01T05:48:48.696Z,64.10
2018-11-01T05:51:23.835Z,64.00
2018-11-01T05:54:03.578Z,63.70
2018-11-01T05:56:40.558Z,63.50
2018-11-01T05:59:34.678Z,63.30
2018-11-01T06:24:50.478Z,61.60
2018-11-01T06:58:36.928Z,59.80
2018-11-01T07:01:22.976Z,59.70
2018-11-01T07:04:01.799Z,59.70
2018-11-01T07:06:42.158Z,59.70
2018-11-01T07:09:22.217Z,59.80
2018-11-01T07:28:47.442Z,61.10
2018-11-01T07:31:27.485Z,60.70
2018-11-01T07:34:05.072Z,60.70
2018-11-01T07:36:42.052Z,60.70
2018-11-01T07:39:27.024Z,60.80
2018-11-01T07:51:50.454Z,60.70
2018-11-01T07:54:47.710Z,60.60
2018-11-01T07:57:31.819Z,60.50
2018-11-01T08:00:20.924Z,60.60
2018-11-01T08:19:42.308Z,60.40
2018-11-01T08:58:43.683Z,59.80
2018-11-01T09:04:21.446Z,59.70
2018-11-01T09:07:04.937Z,59.70
2018-11-01T09:35:01.494Z,58.40
2018-11-01T09:37:44.876Z,58.60
2018-11-01T09:40:28.668Z,58.80
2018-11-01T10:00:02.171Z,59.50
2018-11-01T10:25:15.784Z,60.90
2018-11-01T10:30:55.218Z,60.90
2018-11-01T10:56:30.230Z,61.20
2018-11-01T10:59:18.313Z,61.40
2018-11-01T11:02:06.519Z,61.30
2018-11-01T11:04:47.505Z,61.30
2018-11-01T11:19:00.456Z,60.60
2018-11-01T11:38:32.125Z,60.20
2018-11-01T11:41:16.167Z,60.30
2018-11-01T11:46:51.859Z,60.20
2018-11-01T11:49:47.891Z,60.20
2018-11-01T12:29:00.230Z,60.10
2018-11-01T12:43:17.308Z,60.70
2018-11-01T12:51:46.348Z,60.90
2018-11-01T12:54:38.376Z,60.80
2018-11-01T13:00:18.119Z,60.70
2018-11-01T13:03:05.880Z,60.50
2018-11-01T13:05:53.912Z,60.60
2018-11-01T13:08:37.957Z,60.40
2018-11-01T13:14:14.045Z,60.50
2018-11-01T13:16:59.311Z,60.50
2018-11-01T13:19:41.206Z,60.80
2018-11-01T13:44:43.729Z,62.10
2018-11-01T13:47:29.426Z,62.20
2018-11-01T13:53:03.240Z,62.40
2018-11-01T13:55:52.711Z,62.40
2018-11-01T14:01:23.675Z,62.40
2018-11-01T14:20:51.040Z,62.60
2018-11-01T14:40:18.713Z,63.50
2018-11-01T14:59:43.346Z,64.30
2018-11-01T15:19:10.742Z,64.50
2018-11-01T15:38:43.730Z,64.80
2018-11-01T15:41:27.629Z,64.80
2018-11-01T15:57:13.807Z,65.00
2018-11-01T16:10:36.223Z,65.00
2018-11-01T16:13:32.289Z,65.00
2018-11-01T16:16:35.642Z,65.00
2018-11-01T16:19:15.937Z,65.00
2018-11-01T16:38:47.061Z,65.20
2018-11-01T16:44:11.464Z,65.10
2018-11-01T16:49:33.719Z,65.10
2018-11-01T17:17:27.796Z,65.40
2018-11-01T17:20:04.336Z,65.40
2018-11-01T17:39:36.446Z,65.70
2018-11-01T17:58:59.377Z,65.90
2018-11-01T18:01:37.032Z,65.90
2018-11-01T18:04:16.411Z,65.90
2018-11-01T18:06:53.699Z,66.00
2018-11-01T18:09:33.753Z,65.90
2018-11-01T18:28:56.542Z,65.80
2018-11-01T18:31:34.427Z,65.70
2018-11-01T18:51:00.241Z,65.80
2018-11-01T19:10:27.608Z,65.40
2018-11-01T19:29:52.214Z,65.10
2018-11-01T19:49:12.820Z,65.00
2018-11-01T19:51:51.349Z,65.10
2018-11-01T19:54:27.546Z,65.10
2018-11-01T19:57:04.067Z,65.20
2018-11-01T19:59:41.050Z,65.20
2018-11-01T20:19:05.151Z,65.10
2018-11-01T20:21:44.883Z,65.20
2018-11-01T20:24:20.842Z,65.40
2018-11-01T20:26:59.976Z,65.50
2018-11-01T20:29:40.945Z,65.80
2018-11-01T20:49:02.472Z,67.10
2018-11-01T20:51:42.527Z,67.10
2018-11-01T20:54:19.824Z,67.10
2018-11-01T20:56:59.886Z,67.20
2018-11-01T20:59:38.691Z,67.30
2018-11-01T21:19:03.293Z,68.30
2018-11-01T21:21:39.354Z,68.40
2018-11-01T21:41:03.953Z,69.10
2018-11-01T22:00:28.875Z,69.70
2018-11-01T22:19:55.012Z,70.20
2018-11-01T22:22:32.744Z,70.20
2018-11-01T22:25:10.192Z,70.40
2018-11-01T22:27:51.202Z,70.50
2018-11-01T22:30:30.299Z,70.60
2018-11-01T22:36:44.469Z,70.70
2018-11-01T22:39:20.863Z,70.70
2018-11-01T22:58:40.521Z,71.00
2018-11-01T23:01:17.190Z,71.10
2018-11-01T23:20:38.721Z,71.80
2018-11-01T23:40:10.391Z,72.20
2018-11-01T23:59:33.418Z,72.50
